Terminal Aerodrome Forecast
Issued by NWS

Home | Current Version | Previous Version | Text Only | Print | Product List | Glossary On
Versions: 1 2 3 4 5 6 7 8 9 10 11 12 13 14 15 16 17 18 19 20 21
000
FTUS41 KBTV 300539
TAFRUT
TAF
KRUT 300539Z 3006/3106 13014G20KT 2SM -SN BR BKN017 OVC022
      TEMPO 3006/3010 1SM -SN BR OVC015
     FM301000 13010KT 1 1/2SM -SN BR OVC015
     FM301600 32006KT 1 1/2SM -SN BR OVC015
     FM302000 32009KT 3SM -SN BR OVC018
     FM310000 31009G16KT 5SM -SN BR OVC022
      AMD LTD TO CLD VIS AND WIND=

USA.gov is the U.S. government's official web portal to all federal, state and local government web resources and services.